Time;durP1;ratioP1;P1;durP2;ratioP2;P2;SDS_P1;SDS_P2;PMS_P1;PMS_P2;Temp;Humidity;BMP_temperature;BMP_pressure;BME280_temperature;BME280_humidity;BME280_pressure;Samples;Min_cycle;Max_cycle;Signal;HPM_P1;HPM_P2
2023/02/01 00:02:17;;;;;;;9.25;2.40;;;3.20;99.90;;;;;;5088448;28;19904;-73
2023/02/01 00:04:42;;;;;;;;;;;3.20;99.90;;;;;;5090174;28;20024;-73
2023/02/01 00:07:08;;;;;;;9.73;2.70;;;3.20;99.90;;;;;;5088453;28;20428;-72
2023/02/01 00:09:33;;;;;;;;;;;3.20;99.90;;;;;;5088839;28;20097;-74
2023/02/01 00:12:01;;;;;;;10.05;2.53;;;3.10;99.90;;;;;;5091795;28;20376;-73
2023/02/01 00:14:27;;;;;;;10.80;3.15;;;3.10;99.90;;;;;;5093836;28;20054;-73
2023/02/01 00:16:53;;;;;;;;;;;3.10;99.90;;;;;;5094137;28;20016;-73
2023/02/01 00:19:19;;;;;;;11.98;2.55;;;3.10;99.90;;;;;;5093652;28;19930;-73
2023/02/01 00:21:45;;;;;;;;;;;3.10;99.90;;;;;;5094114;28;20036;-74
2023/02/01 00:24:12;;;;;;;12.15;4.05;;;3.10;99.90;;;;;;5092125;28;19915;-72
2023/02/01 00:26:40;;;;;;;13.07;3.30;;;3.00;99.90;;;;;;5093495;28;20024;-73
2023/02/01 00:29:11;;;;;;;11.35;3.13;;;3.10;99.90;;;;;;5093313;28;20035;-73
2023/02/01 00:31:37;;;;;;;10.18;3.03;;;3.10;99.90;;;;;;5093430;28;20012;-74
2023/02/01 00:34:02;;;;;;;;;;;3.10;99.90;;;;;;5092433;28;20031;-74
2023/02/01 00:36:29;;;;;;;18.25;3.90;;;3.10;99.90;;;;;;5093281;28;19931;-74
2023/02/01 00:38:54;;;;;;;9.77;3.55;;;3.10;99.90;;;;;;5091796;28;20024;-73
2023/02/01 00:41:21;;;;;;;;;;;3.20;99.90;;;;;;5093731;28;20031;-73
2023/02/01 00:43:49;;;;;;;8.82;2.92;;;3.20;99.90;;;;;;5091990;28;19910;-73
2023/02/01 00:46:16;;;;;;;10.88;2.55;;;3.20;99.90;;;;;;5093088;28;20024;-72
2023/02/01 00:48:42;;;;;;;10.13;3.10;;;3.30;99.90;;;;;;5091509;28;20403;-74
2023/02/01 00:51:12;;;;;;;;;;;3.30;99.90;;;;;;5091988;28;20547;-73
2023/02/01 00:53:37;;;;;;;9.00;2.60;;;3.30;99.90;;;;;;5092997;28;19950;-73
2023/02/01 00:56:04;;;;;;;;;;;3.30;99.90;;;;;;5093408;28;20587;-74
2023/02/01 00:58:31;;;;;;;8.63;2.28;;;3.30;99.90;;;;;;5091752;28;19904;-72
2023/02/01 01:01:04;;;;;;;;;;;3.40;99.90;;;;;;5092228;28;20082;-72
2023/02/01 01:03:33;;;;;;;8.20;1.85;;;3.40;99.90;;;;;;5091636;28;20017;-73
2023/02/01 01:05:59;;;;;;;10.88;1.95;;;3.40;99.90;;;;;;5092771;28;20480;-73
2023/02/01 01:08:25;;;;;;;12.45;2.85;;;3.50;99.90;;;;;;5091482;28;20024;-73
2023/02/01 01:10:51;;;;;;;;;;;3.50;99.90;;;;;;5091719;28;20395;-73
2023/02/01 01:13:16;;;;;;;5.60;2.10;;;3.60;99.90;;;;;;5092298;28;20010;-73
2023/02/01 01:15:42;;;;;;;;;;;3.60;99.90;;;;;;5092737;28;20024;-74
2023/02/01 01:18:08;;;;;;;6.75;1.33;;;3.70;99.90;;;;;;5092544;28;19915;-73
2023/02/01 01:20:36;;;;;;;9.40;2.03;;;3.80;99.90;;;;;;5092434;28;20089;-73
2023/02/01 01:23:02;;;;;;;7.32;1.92;;;3.90;99.90;;;;;;5090760;28;20024;-73
2023/02/01 01:25:28;;;;;;;7.50;1.98;;;3.80;99.90;;;;;;5092168;28;20024;-72
2023/02/01 01:27:53;;;;;;;;;;;3.80;99.90;;;;;;5092360;28;20036;-73
2023/02/01 01:30:19;;;;;;;9.35;1.95;;;3.80;99.90;;;;;;5092234;28;20018;-73
2023/02/01 01:32:45;;;;;;;;;;;3.80;99.90;;;;;;5092862;28;20161;-73
2023/02/01 01:35:11;;;;;;;6.53;2.00;;;3.80;99.90;;;;;;5090964;28;19904;-72
2023/02/01 01:37:37;;;;;;;8.43;2.05;;;3.80;99.90;;;;;;5092197;28;20029;-73
2023/02/01 01:40:03;;;;;;;;;;;3.80;99.90;;;;;;5091367;28;20028;-72
2023/02/01 01:42:29;;;;;;;10.30;2.45;;;3.90;99.90;;;;;;5092133;28;19911;-74
2023/02/01 01:44:54;;;;;;;;;;;3.90;99.90;;;;;;5092499;28;20400;-73
2023/02/01 01:47:20;;;;;;;10.23;2.17;;;3.90;99.90;;;;;;5092080;28;20355;-73
2023/02/01 01:49:46;;;;;;;;;;;3.90;99.90;;;;;;5090944;28;20048;-73
2023/02/01 01:52:12;;;;;;;5.22;1.77;;;4.00;99.90;;;;;;5091809;28;19920;-74
2023/02/01 01:54:46;;;;;;;5.72;1.55;;;4.00;99.90;;;;;;5091760;28;20028;-73
2023/02/01 01:57:17;;;;;;;5.20;1.70;;;4.00;99.90;;;;;;5090381;28;20024;-73
2023/02/01 01:59:50;;;;;;;6.30;1.60;;;4.00;99.90;;;;;;5091714;28;20046;-73
2023/02/01 02:02:16;;;;;;;7.93;1.80;;;4.10;99.90;;;;;;5091481;28;20024;-73
2023/02/01 02:04:42;;;;;;;5.25;1.77;;;4.10;99.90;;;;;;5091600;28;20028;-73
2023/02/01 02:07:11;;;;;;;;;;;4.10;99.90;;;;;;5090685;28;20065;-73
2023/02/01 02:09:37;;;;;;;10.75;2.05;;;4.10;99.90;;;;;;5090055;28;19922;-73
2023/02/01 02:12:03;;;;;;;;;;;4.20;99.90;;;;;;5090698;28;20027;-73
2023/02/01 02:14:29;;;;;;;7.07;2.05;;;4.20;99.90;;;;;;5090252;28;19904;-73
2023/02/01 02:17:07;;;;;;;5.65;1.55;;;4.30;99.90;;;;;;5091589;28;20063;-74
2023/02/01 02:19:49;;;;;;;7.38;1.35;;;4.30;99.90;;;;;;5089972;28;20063;-73
2023/02/01 02:22:33;;;;;;;5.88;1.60;;;4.20;99.90;;;;;;5091211;28;20475;-73
2023/02/01 02:25:31;;;;;;;6.32;1.40;;;4.20;99.90;;;;;;5090059;28;20028;-73
2023/02/01 02:28:14;;;;;;;8.77;1.30;;;4.20;99.90;;;;;;5046473;28;20042;-73
2023/02/01 02:30:55;;;;;;;5.80;1.60;;;4.30;99.90;;;;;;5091245;28;20043;-73
2023/02/01 02:33:29;;;;;;;11.13;2.63;;;4.30;99.90;;;;;;5090223;28;20433;-74
2023/02/01 02:36:03;;;;;;;4.22;1.40;;;4.30;99.90;;;;;;5089877;28;20067;-73
2023/02/01 02:38:48;;;;;;;7.65;1.60;;;4.30;99.90;;;;;;5089976;28;20070;-73
2023/02/01 02:47:33;;;;;;;4.88;1.38;;;4.20;99.90;;;;;;5090965;28;20074;-74
2023/02/01 02:55:46;;;;;;;4.38;1.50;;;4.10;99.90;;;;;;5090940;28;20039;-74
2023/02/01 03:04:08;;;;;;;5.47;1.73;;;3.90;99.90;;;;;;5090895;28;20039;-74
2023/02/01 03:06:34;;;;;;;2.72;1.40;;;3.90;99.90;;;;;;5090568;28;20095;-74
2023/02/01 03:09:04;;;;;;;4.45;1.52;;;3.90;99.90;;;;;;5089146;28;20118;-72
2023/02/01 03:14:21;;;;;;;4.93;1.40;;;3.90;99.90;;;;;;5068421;28;20396;-72
2023/02/01 03:16:53;;;;;;;5.25;1.67;;;3.80;99.90;;;;;;5090021;28;20027;-72
2023/02/01 03:19:25;;;;;;;4.40;1.77;;;3.80;99.90;;;;;;5090060;28;20023;-74
2023/02/01 03:21:57;;;;;;;4.40;1.65;;;3.70;99.90;;;;;;5088757;28;20283;-73
2023/02/01 03:24:45;;;;;;;3.75;1.45;;;3.70;99.90;;;;;;5090151;28;20473;-73
2023/02/01 03:27:15;;;;;;;3.40;1.45;;;3.80;99.90;;;;;;5088869;28;20031;-73
2023/02/01 03:30:17;;;;;;;3.15;1.33;;;3.80;99.90;;;;;;5090068;28;20032;-74
2023/02/01 03:33:01;;;;;;;7.18;2.80;;;3.90;99.90;;;;;;5085662;28;20511;-73
2023/02/01 03:35:42;;;;;;;3.10;1.40;;;3.80;99.90;;;;;;5090011;28;20499;-72
2023/02/01 03:38:19;;;;;;;6.10;1.67;;;3.80;99.90;;;;;;5088886;28;20078;-73
2023/02/01 03:40:51;;;;;;;2.95;1.15;;;3.90;99.90;;;;;;5088668;28;20078;-73
2023/02/01 03:43:20;;;;;;;2.80;1.30;;;3.90;99.90;;;;;;5088572;28;20024;-73
2023/02/01 03:45:52;;;;;;;3.70;1.38;;;4.00;99.90;;;;;;5088476;28;20020;-73
2023/02/01 03:48:20;;;;;;;3.70;1.30;;;4.10;99.90;;;;;;5089990;28;20498;-74
2023/02/01 03:50:50;;;;;;;3.25;1.38;;;4.10;99.90;;;;;;5088576;28;20056;-73
2023/02/01 03:53:20;;;;;;;3.25;1.17;;;4.10;99.90;;;;;;5088502;28;20043;-73
2023/02/01 03:55:46;;;;;;;3.35;1.77;;;4.10;99.90;;;;;;5089882;28;20078;-73
2023/02/01 03:58:20;;;;;;;5.97;1.58;;;4.10;99.90;;;;;;5088362;28;20591;-73
2023/02/01 04:00:58;;;;;;;2.30;1.13;;;4.10;99.90;;;;;;5089650;28;20028;-73
2023/02/01 04:03:25;;;;;;;4.80;1.40;;;4.10;99.90;;;;;;5089916;28;20032;-74
2023/02/01 04:05:51;;;;;;;3.00;1.48;;;4.10;99.90;;;;;;5088540;28;20020;-73
2023/02/01 04:08:19;;;;;;;4.00;1.20;;;4.10;99.90;;;;;;5089774;28;20501;-73
2023/02/01 04:10:44;;;;;;;3.45;1.50;;;4.10;99.90;;;;;;5089544;28;20120;-73
2023/02/01 04:13:10;;;;;;;;;;;4.10;99.90;;;;;;5090024;28;20100;-72
2023/02/01 04:15:35;;;;;;;1.95;1.10;;;4.00;99.90;;;;;;5088810;28;20028;-73
2023/02/01 04:18:01;;;;;;;;;;;4.00;99.90;;;;;;5088658;28;20114;-73
2023/02/01 04:20:27;;;;;;;2.40;1.08;;;4.00;99.90;;;;;;5089739;28;20008;-73
2023/02/01 04:22:53;;;;;;;;;;;4.00;99.90;;;;;;5089936;28;20089;-72
2023/02/01 04:25:18;;;;;;;4.03;1.70;;;4.00;99.90;;;;;;5089550;28;20372;-72
2023/02/01 04:27:44;;;;;;;;;;;4.00;99.90;;;;;;5088488;28;20020;-73
2023/02/01 04:30:11;;;;;;;2.60;1.33;;;4.00;99.90;;;;;;5089542;28;20376;-72
2023/02/01 04:32:37;;;;;;;3.58;1.65;;;4.10;99.90;;;;;;5089324;28;20028;-73
2023/02/01 04:35:04;;;;;;;6.43;2.92;;;4.10;99.90;;;;;;5088270;28;20028;-73
2023/02/01 04:37:29;;;;;;;8.15;2.63;;;4.00;99.90;;;;;;5089465;28;20024;-75
2023/02/01 04:39:55;;;;;;;;;;;3.90;99.90;;;;;;5088538;28;20024;-73
2023/02/01 04:42:21;;;;;;;3.63;1.70;;;3.90;99.90;;;;;;5088238;28;19908;-72
2023/02/01 04:44:47;;;;;;;4.72;1.70;;;3.80;99.90;;;;;;5089328;28;20496;-74
2023/02/01 04:47:12;;;;;;;;;;;3.80;99.90;;;;;;5089758;28;20107;-73
2023/02/01 04:49:38;;;;;;;4.18;2.03;;;3.80;99.90;;;;;;5087826;28;20285;-75
2023/02/01 04:52:04;;;;;;;;;;;3.70;99.90;;;;;;5089823;28;20043;-74
2023/02/01 04:54:29;;;;;;;4.70;1.67;;;3.60;99.90;;;;;;5088009;28;20445;-73
2023/02/01 04:56:55;;;;;;;;;;;3.60;99.90;;;;;;5089873;28;20119;-73
2023/02/01 04:59:20;;;;;;;3.58;1.50;;;3.60;99.90;;;;;;5092701;28;19936;-75
2023/02/01 05:01:46;;;;;;;;;;;3.50;99.90;;;;;;5093216;28;20032;-73
2023/02/01 05:04:12;;;;;;;2.85;1.23;;;3.60;99.90;;;;;;5091345;28;19904;-75
2023/02/01 05:06:37;;;;;;;;;;;3.60;99.90;;;;;;5091810;28;20028;-72
2023/02/01 05:09:03;;;;;;;4.95;1.33;;;3.60;99.90;;;;;;5092743;28;19915;-74
2023/02/01 05:14:13;;;;;;;5.20;1.40;;;3.60;99.90;;;;;;5092851;28;20054;-73
2023/02/01 05:16:38;;;;;;;;;;;3.60;99.90;;;;;;5093043;28;20032;-75
2023/02/01 05:19:04;;;;;;;8.65;3.60;;;3.60;99.90;;;;;;5092558;28;20433;-73
2023/02/01 05:21:29;;;;;;;;;;;3.50;99.90;;;;;;5092918;28;20032;-72
2023/02/01 05:24:19;;;;;;;9.82;3.35;;;3.50;99.90;;;;;;5092497;28;19943;-73
2023/02/01 05:26:45;;;;;;;5.03;2.70;;;3.50;99.90;;;;;;5091164;28;20035;-74
2023/02/01 05:29:12;;;;;;;6.47;2.33;;;3.50;99.90;;;;;;5091066;28;20085;-73
2023/02/01 05:31:38;;;;;;;4.93;2.58;;;3.50;99.90;;;;;;5092444;28;20092;-73
2023/02/01 05:34:04;;;;;;;;;;;3.40;99.90;;;;;;5091309;28;20115;-74
2023/02/01 05:36:30;;;;;;;3.17;1.05;;;3.40;99.90;;;;;;5092336;28;19930;-74
2023/02/01 05:38:55;;;;;;;;;;;3.30;99.90;;;;;;5091395;28;20023;-73
2023/02/01 05:41:21;;;;;;;2.13;0.77;;;3.30;99.90;;;;;;5092215;28;19904;-73
2023/02/01 05:43:46;;;;;;;;;;;3.20;99.90;;;;;;5091104;28;20411;-74
2023/02/01 05:46:13;;;;;;;3.30;0.95;;;3.20;99.90;;;;;;5091908;28;20350;-74
2023/02/01 05:48:42;;;;;;;4.95;0.70;;;3.30;99.90;;;;;;5091649;28;20035;-73
2023/02/01 05:51:09;;;;;;;1.67;0.82;;;3.40;99.90;;;;;;5090456;28;20031;-73
2023/02/01 05:53:35;;;;;;;7.18;1.60;;;3.50;99.90;;;;;;5091827;28;20123;-73
2023/02/01 05:56:01;;;;;;;;;;;3.60;99.90;;;;;;5092186;28;20107;-72
2023/02/01 05:58:27;;;;;;;2.08;0.75;;;3.70;99.90;;;;;;5091578;28;19931;-72
2023/02/01 06:00:52;;;;;;;;;;;3.70;99.90;;;;;;5091891;28;20036;-73
2023/02/01 06:03:18;;;;;;;2.30;0.70;;;3.70;99.90;;;;;;5091564;28;19930;-73
2023/02/01 06:05:45;;;;;;;4.03;1.00;;;3.70;99.90;;;;;;5089860;28;20047;-74
2023/02/01 06:08:11;;;;;;;5.15;1.40;;;3.70;99.90;;;;;;5091519;28;20032;-74
2023/02/01 06:10:36;;;;;;;;;;;3.60;99.90;;;;;;5091875;28;20557;-73
2023/02/01 06:13:02;;;;;;;2.22;0.82;;;3.60;99.90;;;;;;5091493;28;19927;-74
2023/02/01 06:15:28;;;;;;;;;;;3.50;99.90;;;;;;5090634;28;20032;-72
2023/02/01 06:17:54;;;;;;;5.45;2.42;;;3.40;99.90;;;;;;5089811;28;19912;-72
2023/02/01 06:20:20;;;;;;;;;;;3.40;99.90;;;;;;5091677;28;20164;-72
2023/02/01 06:22:46;;;;;;;3.30;1.38;;;3.40;99.90;;;;;;5091309;28;20015;-72
2023/02/01 06:25:11;;;;;;;;;;;3.50;99.90;;;;;;5091654;28;20205;-73
2023/02/01 06:27:37;;;;;;;3.72;1.63;;;3.50;99.90;;;;;;5091162;28;19911;-73
2023/02/01 06:30:04;;;;;;;;;;;3.60;99.90;;;;;;5091274;28;20047;-73
2023/02/01 06:32:29;;;;;;;4.03;1.60;;;3.60;99.90;;;;;;5089668;28;20045;-73
2023/02/01 06:34:56;;;;;;;;;;;3.60;99.90;;;;;;5091354;28;20103;-73
2023/02/01 06:37:24;;;;;;;6.23;1.13;;;3.60;99.90;;;;;;5091084;28;19907;-73
2023/02/01 06:39:49;;;;;;;2.75;1.20;;;3.60;99.90;;;;;;5090967;28;20020;-74
2023/02/01 06:42:15;;;;;;;;;;;3.60;99.90;;;;;;5089793;28;20027;-73
2023/02/01 06:44:41;;;;;;;2.58;0.82;;;3.60;99.90;;;;;;5090693;28;19911;-73
2023/02/01 06:47:06;;;;;;;;;;;3.60;99.90;;;;;;5091615;28;20555;-73
2023/02/01 06:49:32;;;;;;;6.85;1.40;;;3.70;99.90;;;;;;5090847;28;20403;-72
2023/02/01 06:51:59;;;;;;;;;;;4.00;99.90;;;;;;5091478;28;20032;-73
2023/02/01 06:54:25;;;;;;;;;;;4.30;99.90;;;;;;5091521;28;20393;-72
2023/02/01 06:56:51;;;;;;;6.47;1.60;;;4.60;99.90;;;;;;5090799;28;20010;-73
2023/02/01 06:59:17;;;;;;;;;;;4.90;99.90;;;;;;5090054;28;20026;-74
2023/02/01 07:01:42;;;;;;;2.25;1.00;;;5.30;99.90;;;;;;5089269;28;19930;-73
2023/02/01 07:04:10;;;;;;;;;;;5.80;99.90;;;;;;5089666;28;20069;-71
2023/02/01 07:06:35;;;;;;;;;;;6.40;99.90;;;;;;5091038;28;20489;-73
2023/02/01 07:09:01;;;;;;;1.88;0.80;;;6.80;99.90;;;;;;5089519;28;19915;-73
2023/02/01 07:11:27;;;;;;;;;;;7.20;99.90;;;;;;5089751;28;20050;-73
2023/02/01 07:13:54;;;;;;;4.43;0.98;;;7.50;98.10;;;;;;5089327;28;19949;-73
2023/02/01 07:16:19;;;;;;;;;;;7.90;97.10;;;;;;5089653;28;20420;-75
2023/02/01 07:18:46;;;;;;;4.03;1.50;;;8.20;93.40;;;;;;5088978;28;19904;-75
2023/02/01 07:21:11;;;;;;;;;;;8.30;94.70;;;;;;5090696;28;20024;-75
2023/02/01 07:23:38;;;;;;;3.45;1.55;;;8.30;91.80;;;;;;5090606;28;19928;-75
2023/02/01 07:26:06;;;;;;;7.00;1.15;;;8.40;90.70;;;;;;5089372;28;20099;-75
2023/02/01 07:28:33;;;;;;;3.42;1.50;;;8.40;91.40;;;;;;5089980;28;20092;-73
2023/02/01 07:31:04;;;;;;;6.35;2.15;;;8.30;92.30;;;;;;5089091;28;20044;-75
2023/02/01 07:33:30;;;;;;;3.70;1.20;;;8.20;91.50;;;;;;5088876;28;20024;-74
2023/02/01 07:35:55;;;;;;;;;;;8.20;92.00;;;;;;5089322;28;20031;-75
2023/02/01 07:38:21;;;;;;;15.85;1.92;;;8.30;90.90;;;;;;5089016;28;19942;-75
2023/02/01 07:40:47;;;;;;;;;;;8.30;90.90;;;;;;5090890;28;20024;-76
2023/02/01 07:43:12;;;;;;;5.55;1.85;;;8.40;87.80;;;;;;5089218;28;20283;-75
2023/02/01 07:45:38;;;;;;;;;;;8.40;89.80;;;;;;5090801;28;20496;-75
2023/02/01 07:48:04;;;;;;;3.85;1.38;;;8.60;88.90;;;;;;5090210;28;19977;-76
2023/02/01 07:50:29;;;;;;;;;;;8.50;90.60;;;;;;5089333;28;20466;-76
2023/02/01 07:52:55;;;;;;;2.28;0.70;;;8.60;91.10;;;;;;5090200;28;19927;-76
2023/02/01 07:55:21;;;;;;;;;;;8.60;92.20;;;;;;5089014;28;20025;-76
2023/02/01 07:57:46;;;;;;;2.58;0.95;;;8.70;87.80;;;;;;5089817;28;19904;-75
2023/02/01 08:03:00;;;;;;;3.15;0.75;;;9.00;84.00;;;;;;5090375;28;20101;-71
2023/02/01 08:05:26;;;;;;;2.33;0.80;;;9.30;79.90;;;;;;5089717;28;20710;-71
2023/02/01 08:07:52;;;;;;;3.25;0.65;;;9.50;79.70;;;;;;5089699;28;20117;-72
2023/02/01 08:10:19;;;;;;;;;;;9.90;73.10;;;;;;5089151;28;20070;-75
2023/02/01 08:12:48;;;;;;;2.50;0.50;;;9.90;72.10;;;;;;5090177;28;20425;-73
2023/02/01 08:15:18;;;;;;;2.85;0.55;;;10.00;73.20;;;;;;5089866;28;20154;-72
2023/02/01 08:17:51;;;;;;;3.28;0.55;;;10.10;73.60;;;;;;5088631;28;20077;-73
2023/02/01 08:20:24;;;;;;;1.88;0.40;;;10.20;72.90;;;;;;5089781;28;20017;-71
2023/02/01 08:22:53;;;;;;;1.95;0.50;;;10.20;73.00;;;;;;5088531;28;20032;-73
2023/02/01 08:25:18;;;;;;;3.72;0.50;;;10.20;74.60;;;;;;5088274;28;20097;-75
2023/02/01 08:27:45;;;;;;;;;;;10.10;74.30;;;;;;5088503;28;20106;-71
2023/02/01 08:30:11;;;;;;;3.22;0.50;;;10.30;74.90;;;;;;5089668;28;19916;-71
2023/02/01 08:32:37;;;;;;;3.55;0.90;;;10.40;74.70;;;;;;5092313;28;20548;-71
2023/02/01 08:35:04;;;;;;;2.47;0.40;;;10.40;74.90;;;;;;5092432;28;20122;-72
2023/02/01 08:37:30;;;;;;;1.88;0.65;;;10.50;73.80;;;;;;5091342;28;20706;-73
2023/02/01 08:39:56;;;;;;;2.35;0.40;;;10.20;73.30;;;;;;5092344;28;20024;-74
2023/02/01 08:45:07;;;;;;;2.25;0.60;;;10.00;75.50;;;;;;5093503;28;20386;-72
2023/02/01 08:47:33;;;;;;;6.55;1.00;;;10.10;74.40;;;;;;5091996;28;20897;-72
2023/02/01 08:49:59;;;;;;;2.65;0.60;;;10.20;72.20;;;;;;5093128;28;20044;-73
2023/02/01 08:52:25;;;;;;;;;;;10.00;73.20;;;;;;5093948;28;20476;-74
2023/02/01 08:54:50;;;;;;;5.25;0.70;;;10.00;72.70;;;;;;5093294;28;19924;-73
2023/02/01 08:57:16;;;;;;;;;;;10.30;72.30;;;;;;5092107;28;20399;-73
2023/02/01 08:59:43;;;;;;;3.60;0.75;;;10.50;70.40;;;;;;5093314;28;19988;-73
2023/02/01 09:02:13;;;;;;;1.63;0.40;;;10.60;69.60;;;;;;5091566;28;20051;-74
2023/02/01 09:04:39;;;;;;;3.80;0.60;;;10.90;69.10;;;;;;5092098;28;20028;-73
2023/02/01 09:07:05;;;;;;;;;;;11.10;69.00;;;;;;5092115;28;20034;-73
2023/02/01 09:09:30;;;;;;;2.05;0.50;;;11.10;68.80;;;;;;5091566;28;19912;-74
2023/02/01 09:11:56;;;;;;;;;;;11.40;68.10;;;;;;5091764;28;20020;-74
2023/02/01 09:14:22;;;;;;;2.85;0.57;;;11.60;67.00;;;;;;5091293;28;19947;-73
2023/02/01 09:16:47;;;;;;;;;;;11.50;66.90;;;;;;5091889;28;20462;-73
2023/02/01 09:19:13;;;;;;;1.77;0.50;;;11.80;66.10;;;;;;5093208;28;19915;-73
2023/02/01 09:21:39;;;;;;;1.48;0.40;;;11.60;66.40;;;;;;5093121;28;20024;-74
2023/02/01 09:24:05;;;;;;;;;;;11.70;65.90;;;;;;5091039;28;20448;-73
2023/02/01 09:26:30;;;;;;;2.60;0.50;;;11.60;64.80;;;;;;5090907;28;19963;-73
2023/02/01 09:28:56;;;;;;;3.58;0.70;;;11.60;64.60;;;;;;5091304;28;20062;-74
2023/02/01 09:31:22;;;;;;;;;;;12.00;63.80;;;;;;5090402;28;20526;-74
2023/02/01 09:33:47;;;;;;;3.00;0.40;;;12.00;63.30;;;;;;5090373;28;20335;-76
2023/02/01 09:36:13;;;;;;;;;;;11.80;64.80;;;;;;5092196;28;20451;-76
2023/02/01 09:38:38;;;;;;;3.28;0.63;;;11.60;64.00;;;;;;5091446;28;19958;-75
2023/02/01 09:41:19;;;;;;;;;;;11.30;63.90;;;;;;5090900;28;20032;-72
2023/02/01 09:44:05;;;;;;;4.90;0.50;;;10.60;65.80;;;;;;5090898;28;19962;-73
2023/02/01 09:46:34;;;;;;;4.30;0.77;;;10.10;67.40;;;;;;5089990;28;20027;-72
2023/02/01 09:49:05;;;;;;;7.03;0.90;;;9.70;70.90;;;;;;5091042;28;20035;-72
2023/02/01 09:51:38;;;;;;;5.00;0.80;;;9.40;72.40;;;;;;5090952;28;20556;-74
2023/02/01 09:54:08;;;;;;;7.18;1.13;;;9.00;74.50;;;;;;5091400;28;20020;-73
2023/02/01 09:56:40;;;;;;;3.67;0.50;;;8.80;77.10;;;;;;5091191;28;20526;-73
2023/02/01 09:59:21;;;;;;;2.40;0.70;;;8.80;75.90;;;;;;5091327;28;20028;-73
2023/02/01 10:01:47;;;;;;;4.93;0.70;;;8.60;78.90;;;;;;5091345;28;20111;-74
2023/02/01 10:04:14;;;;;;;;;;;8.50;79.60;;;;;;5090675;28;20559;-72
2023/02/01 10:06:39;;;;;;;8.38;0.90;;;8.20;83.20;;;;;;5091009;28;19950;-74
2023/02/01 10:09:11;;;;;;;;;;;8.00;86.10;;;;;;5090660;28;20611;-73
2023/02/01 10:11:56;;;;;;;5.45;0.73;;;7.80;89.10;;;;;;5091039;28;19915;-76
2023/02/01 10:14:57;;;;;;;4.45;0.85;;;7.80;89.90;;;;;;5090550;28;20020;-73
2023/02/01 10:17:37;;;;;;;5.10;1.33;;;7.90;86.80;;;;;;5090445;28;20024;-75
2023/02/01 10:20:24;;;;;;;2.70;0.82;;;7.90;87.40;;;;;;5089555;28;20027;-75
2023/02/01 10:23:31;;;;;;;3.22;0.77;;;8.00;90.30;;;;;;5089227;28;20039;-73
2023/02/01 10:26:15;;;;;;;5.72;0.85;;;8.20;86.20;;;;;;5079761;28;20083;-73
2023/02/01 10:28:43;;;;;;;4.15;0.85;;;8.20;81.90;;;;;;5088890;28;20395;-74
2023/02/01 10:31:09;;;;;;;4.95;0.68;;;8.10;89.10;;;;;;5090650;28;20032;-75
2023/02/01 10:33:39;;;;;;;;;;;8.00;91.10;;;;;;5088662;28;20024;-73
2023/02/01 10:36:08;;;;;;;3.97;0.88;;;8.00;91.70;;;;;;5090372;28;19973;-74
2023/02/01 10:38:33;;;;;;;6.05;0.90;;;8.00;90.90;;;;;;5090422;28;20388;-75
2023/02/01 10:41:04;;;;;;;;;;;7.90;89.10;;;;;;5090976;28;20024;-75
2023/02/01 10:43:31;;;;;;;4.95;0.82;;;7.80;91.30;;;;;;5090419;28;19908;-74
2023/02/01 10:45:57;;;;;;;6.65;0.80;;;7.90;91.30;;;;;;5088887;28;20028;-74
2023/02/01 10:48:22;;;;;;;;;;;8.00;85.50;;;;;;5090542;28;20027;-74
2023/02/01 10:50:57;;;;;;;5.38;1.08;;;8.10;90.70;;;;;;5090096;28;19916;-75
2023/02/01 10:53:31;;;;;;;6.57;1.00;;;8.10;83.40;;;;;;5090255;28;20016;-75
2023/02/01 10:55:57;;;;;;;4.22;1.50;;;8.00;87.50;;;;;;5088293;28;20036;-74
2023/02/01 10:58:28;;;;;;;;;;;8.10;87.70;;;;;;5089622;28;20068;-75
2023/02/01 11:00:58;;;;;;;4.55;0.93;;;8.00;90.80;;;;;;5090026;28;19970;-74
2023/02/01 11:03:27;;;;;;;5.40;0.93;;;8.00;92.40;;;;;;5088671;28;20062;-75
2023/02/01 11:05:56;;;;;;;4.22;0.82;;;8.00;96.60;;;;;;5088387;28;20024;-74
2023/02/01 11:08:21;;;;;;;5.10;1.00;;;8.00;97.40;;;;;;5089933;28;20024;-74
2023/02/01 11:10:56;;;;;;;;;;;8.10;93.90;;;;;;5089827;28;20036;-75
2023/02/01 11:13:29;;;;;;;3.10;0.73;;;8.10;95.70;;;;;;5088285;28;19907;-75
2023/02/01 11:16:01;;;;;;;7.05;1.10;;;8.20;93.50;;;;;;5088261;28;20035;-74
2023/02/01 11:18:34;;;;;;;5.55;1.20;;;8.30;91.30;;;;;;5088144;28;20057;-75
2023/02/01 11:21:00;;;;;;;5.00;0.80;;;8.30;92.70;;;;;;5088091;28;20027;-75
2023/02/01 11:23:29;;;;;;;2.22;0.70;;;8.30;93.40;;;;;;5088555;28;20036;-75
2023/02/01 11:26:23;;;;;;;4.43;1.08;;;8.30;95.30;;;;;;5088119;28;20062;-75
2023/02/01 11:29:00;;;;;;;2.00;0.52;;;8.40;91.90;;;;;;5078942;28;20036;-75
2023/02/01 11:31:27;;;;;;;2.90;0.70;;;8.40;93.00;;;;;;5089048;28;20503;-75
2023/02/01 11:33:58;;;;;;;3.65;0.80;;;8.30;95.10;;;;;;5089334;28;20020;-75
2023/02/01 11:36:31;;;;;;;3.03;0.55;;;8.40;95.30;;;;;;5089258;28;20522;-75
2023/02/01 11:39:15;;;;;;;3.72;0.73;;;8.70;92.60;;;;;;5089217;28;20024;-73
2023/02/01 11:42:16;;;;;;;4.45;0.60;;;8.90;90.10;;;;;;5087952;28;20081;-73
2023/02/01 11:44:46;;;;;;;5.38;0.93;;;8.90;87.90;;;;;;5089184;28;20484;-75
2023/02/01 11:47:38;;;;;;;3.55;0.98;;;9.00;85.30;;;;;;5089812;28;20063;-73
2023/02/01 11:50:15;;;;;;;2.90;0.50;;;9.00;84.20;;;;;;5089773;28;20093;-74
2023/02/01 11:53:16;;;;;;;2.22;0.70;;;8.80;85.40;;;;;;5090223;28;20025;-74
2023/02/01 11:55:57;;;;;;;3.42;0.40;;;8.80;86.70;;;;;;5085776;28;20101;-75
2023/02/01 11:58:55;;;;;;;6.00;0.70;;;8.60;88.80;;;;;;5090139;28;20024;-73
2023/02/01 12:01:29;;;;;;;6.03;0.70;;;8.50;90.90;;;;;;5090121;28;20039;-74
2023/02/01 12:04:14;;;;;;;2.30;0.75;;;8.40;93.40;;;;;;5089154;28;20036;-73
2023/02/01 12:06:54;;;;;;;3.20;0.65;;;8.40;92.60;;;;;;5091426;28;20396;-74
2023/02/01 12:09:34;;;;;;;3.50;0.70;;;8.40;94.10;;;;;;5094109;28;20568;-74
2023/02/01 12:12:37;;;;;;;11.55;3.15;;;8.40;95.00;;;;;;5093897;28;20020;-74
2023/02/01 12:15:15;;;;;;;13.02;5.53;;;8.50;95.20;;;;;;5076625;28;20040;-75
2023/02/01 12:17:59;;;;;;;5.97;1.30;;;8.40;95.90;;;;;;5094049;28;20024;-72
2023/02/01 12:20:34;;;;;;;2.65;0.50;;;8.40;96.20;;;;;;5092707;28;20042;-73
2023/02/01 12:23:24;;;;;;;6.57;0.65;;;8.30;97.00;;;;;;5093983;28;20028;-75
2023/02/01 12:26:27;;;;;;;5.55;1.13;;;8.30;96.80;;;;;;5094145;28;20043;-73
2023/02/01 12:29:24;;;;;;;2.22;0.50;;;8.10;97.90;;;;;;5093935;28;20071;-71
2023/02/01 12:32:31;;;;;;;6.05;0.70;;;8.10;99.20;;;;;;5092738;28;20480;-74
2023/02/01 12:35:21;;;;;;;6.87;0.83;;;8.10;98.80;;;;;;5091762;28;20040;-74
2023/02/01 12:38:02;;;;;;;3.83;0.90;;;8.00;99.90;;;;;;5093645;28;20081;-74
2023/02/01 12:41:02;;;;;;;3.00;0.50;;;7.80;99.90;;;;;;5092337;28;20020;-75
2023/02/01 12:43:37;;;;;;;1.48;0.50;;;7.70;99.90;;;;;;5093167;28;20035;-74
2023/02/01 12:46:16;;;;;;;2.00;0.50;;;7.60;99.90;;;;;;5092405;28;20496;-73
2023/02/01 12:49:05;;;;;;;2.45;0.57;;;7.30;99.90;;;;;;5093252;28;20126;-75
2023/02/01 12:51:37;;;;;;;3.00;0.73;;;6.90;99.90;;;;;;5092137;28;20044;-73
2023/02/01 12:54:18;;;;;;;4.70;0.57;;;6.60;99.90;;;;;;5092050;28;20483;-75
2023/02/01 12:57:00;;;;;;;1.95;0.50;;;6.40;99.90;;;;;;5093338;28;20046;-73
2023/02/01 12:59:40;;;;;;;1.42;0.47;;;6.30;99.90;;;;;;5091915;28;20392;-74
2023/02/01 13:02:21;;;;;;;1.70;0.50;;;6.00;99.90;;;;;;5091962;28;20085;-75
2023/02/01 13:05:03;;;;;;;2.25;0.70;;;5.80;99.90;;;;;;5092113;28;20032;-74
2023/02/01 13:07:52;;;;;;;2.58;0.55;;;5.70;99.90;;;;;;5091481;28;20411;-74
2023/02/01 13:10:35;;;;;;;1.25;0.52;;;5.50;99.90;;;;;;5093197;28;20028;-74
2023/02/01 13:13:09;;;;;;;3.03;0.73;;;5.40;99.90;;;;;;5091834;28;20028;-74
2023/02/01 13:15:46;;;;;;;1.95;0.77;;;5.30;99.90;;;;;;5092596;28;20561;-73
2023/02/01 13:18:21;;;;;;;4.45;1.50;;;5.20;99.90;;;;;;5090621;28;20020;-74
2023/02/01 13:20:47;;;;;;;8.57;1.50;;;5.10;99.90;;;;;;5091732;28;20024;-74
2023/02/01 13:23:24;;;;;;;;;;;5.00;99.90;;;;;;5093379;28;20066;-74
2023/02/01 13:25:52;;;;;;;4.88;2.35;;;5.00;99.90;;;;;;5092749;28;19904;-73
2023/02/01 13:28:28;;;;;;;4.65;2.28;;;4.80;99.90;;;;;;5092614;28;20027;-75
2023/02/01 13:31:11;;;;;;;14.70;6.43;;;4.70;99.90;;;;;;5092495;28;20512;-73
2023/02/01 13:34:01;;;;;;;11.05;4.25;;;4.60;99.90;;;;;;5092158;28;20096;-72
2023/02/01 13:36:38;;;;;;;9.40;4.25;;;4.60;99.90;;;;;;5092569;28;20059;-74
2023/02/01 13:39:23;;;;;;;5.15;2.45;;;4.50;99.90;;;;;;5091192;28;20032;-74
2023/02/01 13:42:21;;;;;;;4.55;1.70;;;4.30;99.90;;;;;;5092219;28;20031;-74
2023/02/01 13:44:57;;;;;;;4.32;1.90;;;4.20;99.90;;;;;;5074711;28;20047;-74
2023/02/01 13:47:39;;;;;;;2.70;1.23;;;4.10;99.90;;;;;;5092001;28;20032;-74
2023/02/01 13:50:37;;;;;;;4.55;3.03;;;4.10;99.90;;;;;;5091675;28;20539;-74
2023/02/01 13:53:12;;;;;;;2.97;1.48;;;4.10;99.90;;;;;;5085531;28;20036;-73
2023/02/01 13:55:44;;;;;;;1.73;0.98;;;4.10;99.90;;;;;;5091937;28;20016;-74
2023/02/01 13:58:10;;;;;;;5.00;1.42;;;4.10;99.90;;;;;;5090613;28;20488;-75
2023/02/01 14:00:36;;;;;;;;;;;4.00;99.90;;;;;;5091094;28;20020;-74
2023/02/01 14:03:02;;;;;;;3.92;1.60;;;4.00;99.90;;;;;;5090666;28;19904;-74
2023/02/01 14:05:30;;;;;;;;;;;4.00;99.90;;;;;;5091043;28;20035;-74